LNAKE LKKV-LKKV
Flight info
| Callsign | LNAKE |
|---|---|
| Flight time | 0h 4m |
| Altitude | 3500 |
| Route | W/N0111F040 |
| Aircraft | P28A/L-SDFRY/C |
Departure
| Time | 2026-04-19 18:26 |
|---|---|
| Airport | Karlovy Vary Airport (LKKV) |
Arrival
| Time | 2026-04-19 18:30 |
|---|---|
| Airport | Karlovy Vary Airport (LKKV) |
| Time | Latitude | Longitude | Altitude | Speed | Heading |
|---|---|---|---|---|---|
| 2026-04-19 18:19 | 50.20198 | 12.91193 | 1988 ft | 0 kts | 194° |
| 2026-04-19 18:23 | 50.20193 | 12.91213 | 1988 ft | 7 kts | 54° |
| 2026-04-19 18:23 | 50.20244 | 12.91177 | 1988 ft | 12 kts | 11° |
| 2026-04-19 18:24 | 50.20328 | 12.91228 | 1995 ft | 12 kts | 16° |
| 2026-04-19 18:24 | 50.20351 | 12.91350 | 1994 ft | 26 kts | 111° |
| 2026-04-19 18:24 | 50.20207 | 12.91871 | 1990 ft | 76 kts | 114° |
| 2026-04-19 18:24 | 50.19993 | 12.92715 | 2079 ft | 85 kts | 113° |
| 2026-04-19 18:25 | 50.19950 | 12.92909 | 2093 ft | 88 kts | 114° |
| 2026-04-19 18:25 | 50.19800 | 12.93509 | 2114 ft | 95 kts | 119° |
| 2026-04-19 18:25 | 50.19510 | 12.94424 | 2337 ft | 92 kts | 127° |
| 2026-04-19 18:26 | 50.19190 | 12.95303 | 2533 ft | 96 kts | 122° |
| 2026-04-19 18:26 | 50.18709 | 12.95739 | 2791 ft | 77 kts | 211° |
| 2026-04-19 18:26 | 50.18525 | 12.95147 | 2955 ft | 66 kts | 291° |
| 2026-04-19 18:26 | 50.18713 | 12.94408 | 3062 ft | 79 kts | 303° |
| 2026-04-19 18:27 | 50.18993 | 12.93619 | 3116 ft | 88 kts | 304° |
| 2026-04-19 18:27 | 50.19285 | 12.92755 | 3256 ft | 91 kts | 307° |
| 2026-04-19 18:27 | 50.19646 | 12.91936 | 3390 ft | 91 kts | 315° |
| 2026-04-19 18:27 | 50.20068 | 12.91169 | 3396 ft | 94 kts | 315° |
| 2026-04-19 18:28 | 50.20460 | 12.90352 | 3373 ft | 93 kts | 312° |
| 2026-04-19 18:28 | 50.20924 | 12.89663 | 3375 ft | 92 kts | 334° |
| 2026-04-19 18:28 | 50.21554 | 12.89860 | 3281 ft | 106 kts | 39° |
| 2026-04-19 18:28 | 50.21566 | 12.91020 | 3195 ft | 119 kts | 120° |
| 2026-04-19 18:29 | 50.21149 | 12.92096 | 2973 ft | 111 kts | 125° |
| 2026-04-19 18:29 | 50.20783 | 12.93051 | 2770 ft | 97 kts | 124° |
| 2026-04-19 18:29 | 50.20457 | 12.93956 | 2582 ft | 94 kts | 134° |
| 2026-04-19 18:29 | 50.19956 | 12.94142 | 2471 ft | 71 kts | 226° |
| 2026-04-19 18:30 | 50.19817 | 12.93487 | 2243 ft | 63 kts | 283° |
| 2026-04-19 18:30 | 50.19945 | 12.92839 | 2069 ft | 62 kts | 294° |
| 2026-04-19 18:30 | 50.20094 | 12.92287 | 1991 ft | 44 kts | 294° |
| 2026-04-19 18:30 | 50.20249 | 12.91739 | 2029 ft | 66 kts | 295° |
| 2026-04-19 18:31 | 50.20430 | 12.91066 | 2153 ft | 69 kts | 294° |
| 2026-04-19 18:31 | 50.20625 | 12.90372 | 2303 ft | 69 kts | 298° |
| 2026-04-19 18:31 | 50.20842 | 12.89707 | 2525 ft | 71 kts | 300° |
| 2026-04-19 18:31 | 50.21136 | 12.89077 | 2797 ft | 77 kts | 340° |
| 2026-04-19 18:32 | 50.21515 | 12.89690 | 3043 ft | 105 kts | 87° |
| 2026-04-19 18:32 | 50.21233 | 12.90791 | 2985 ft | 115 kts | 121° |
| 2026-04-19 18:32 | 50.20869 | 12.91838 | 2769 ft | 105 kts | 123° |
| 2026-04-19 18:32 | 50.20555 | 12.92837 | 2618 ft | 101 kts | 121° |
| 2026-04-19 18:33 | 50.20280 | 12.93772 | 2524 ft | 90 kts | 123° |
| 2026-04-19 18:33 | 50.20018 | 12.94667 | 2453 ft | 91 kts | 127° |
| 2026-04-19 18:33 | 50.19594 | 12.94767 | 2391 ft | 54 kts | 252° |
| 2026-04-19 18:33 | 50.19589 | 12.94176 | 2281 ft | 60 kts | 292° |
| 2026-04-19 18:34 | 50.19743 | 12.93567 | 2155 ft | 56 kts | 296° |
| 2026-04-19 18:34 | 50.19902 | 12.92991 | 2033 ft | 59 kts | 297° |
| 2026-04-19 18:34 | 50.20049 | 12.92470 | 1995 ft | 43 kts | 292° |
| 2026-04-19 18:34 | 50.20183 | 12.91962 | 2066 ft | 57 kts | 295° |
| 2026-04-19 18:35 | 50.20360 | 12.91354 | 2166 ft | 67 kts | 294° |
| 2026-04-19 18:35 | 50.20537 | 12.90646 | 2308 ft | 72 kts | 300° |
| 2026-04-19 18:35 | 50.20743 | 12.89934 | 2558 ft | 71 kts | 303° |
| 2026-04-19 18:35 | 50.21198 | 12.89871 | 2825 ft | 92 kts | 42° |
| 2026-04-19 18:36 | 50.21150 | 12.90921 | 2982 ft | 116 kts | 120° |
| 2026-04-19 18:36 | 50.20789 | 12.92070 | 2957 ft | 120 kts | 118° |
| 2026-04-19 18:36 | 50.20437 | 12.93243 | 2784 ft | 117 kts | 120° |
| 2026-04-19 18:36 | 50.20087 | 12.94328 | 2606 ft | 99 kts | 126° |
| 2026-04-19 18:37 | 50.19597 | 12.94737 | 2538 ft | 74 kts | 214° |
| 2026-04-19 18:37 | 50.19437 | 12.94181 | 2388 ft | 62 kts | 299° |
| 2026-04-19 18:37 | 50.19724 | 12.93610 | 2185 ft | 68 kts | 302° |
| 2026-04-19 18:37 | 50.19916 | 12.92939 | 2047 ft | 66 kts | 297° |
| 2026-04-19 18:38 | 50.20083 | 12.92362 | 1990 ft | 46 kts | 288° |
| 2026-04-19 18:38 | 50.20225 | 12.91824 | 2017 ft | 65 kts | 296° |
| 2026-04-19 18:38 | 50.20418 | 12.91160 | 2144 ft | 71 kts | 298° |
| 2026-04-19 18:38 | 50.20603 | 12.90462 | 2330 ft | 66 kts | 296° |
| 2026-04-19 18:39 | 50.20827 | 12.89795 | 2533 ft | 72 kts | 303° |
| 2026-04-19 18:39 | 50.21242 | 12.89503 | 2848 ft | 88 kts | 19° |
| 2026-04-19 18:39 | 50.21378 | 12.90472 | 3046 ft | 117 kts | 124° |
| 2026-04-19 18:39 | 50.21020 | 12.91580 | 3133 ft | 109 kts | 117° |
| 2026-04-19 18:40 | 50.20679 | 12.92658 | 3052 ft | 111 kts | 124° |
| 2026-04-19 18:40 | 50.20320 | 12.93744 | 2892 ft | 113 kts | 118° |
| 2026-04-19 18:40 | 50.19987 | 12.94816 | 2797 ft | 104 kts | 152° |
| 2026-04-19 18:40 | 50.19514 | 12.94557 | 2814 ft | 71 kts | 275° |
| 2026-04-19 18:41 | 50.19669 | 12.93841 | 2398 ft | 74 kts | 296° |
| 2026-04-19 18:41 | 50.19868 | 12.93104 | 2110 ft | 72 kts | 297° |
| 2026-04-19 18:41 | 50.20058 | 12.92426 | 1994 ft | 58 kts | 292° |
| 2026-04-19 18:41 | 50.20189 | 12.91939 | 1990 ft | 53 kts | 292° |
| 2026-04-19 18:42 | 50.20353 | 12.91378 | 2092 ft | 60 kts | 295° |